Halfway's Hourly Summary for Monday, March 13, 2017
Hour Temp
(f)
RH
(%)
Solar Rad.
(MJ/m2)
Rainfall
(in)
Wind
(mph)
3/13/2017 12:00 AM 45 77 0 0 3.41
3/13/2017 1:00 AM 42 78 0 0 3.1
3/13/2017 2:00 AM 41 83 0 0 18.18
3/13/2017 3:00 AM 40 85 0 0 16.34
3/13/2017 4:00 AM 38 88 0 0 12.86
3/13/2017 5:00 AM 38 88 0 0 7.99
3/13/2017 6:00 AM 35 91 0 0 7.91
3/13/2017 7:00 AM 33 92 0 0 7.27
3/13/2017 8:00 AM 34 85 0.3 0 8.36
3/13/2017 9:00 AM 40 63 0.93 0 10.85
3/13/2017 10:00 AM 47 48 1.64 0 14.53
3/13/2017 11:00 AM 51 39 2.27 0 11.07
3/13/2017 12:00 PM 54 29 2.72 0 8.28
3/13/2017 1:00 PM 56 26 2.76 0 5.25
3/13/2017 2:00 PM 0 0 0 0 0
3/13/2017 3:00 PM 58 24 2.95 0 5.23
3/13/2017 4:00 PM 60 22 2.61 0 3.53
3/13/2017 5:00 PM 61 21 2.32 0 2.99
3/13/2017 6:00 PM 61 20 1.64 0 4.25
3/13/2017 7:00 PM 60 22 0.81 0 3.76
3/13/2017 8:00 PM 56 24 0.14 0 3.46
3/13/2017 9:00 PM 50 32 0 0 2.36
3/13/2017 10:00 PM 45 42 0 0 3.09
3/13/2017 11:00 PM 44 42 0 0 7.88
Data Summary 45 50 21.09 0.00 7.16